sensor_id;sensor_type;location;lat;lon;timestamp;P1;durP1;ratioP1;P2;durP2;ratioP2
4313;SDS011;2170;48.794;9.182;2022-10-31T00:02:04;9.87;;;8.67;;
4313;SDS011;2170;48.794;9.182;2022-10-31T00:04:31;10.87;;;8.97;;
4313;SDS011;2170;48.794;9.182;2022-10-31T00:06:59;14.33;;;9.37;;
4313;SDS011;2170;48.794;9.182;2022-10-31T00:09:26;10.80;;;8.87;;
4313;SDS011;2170;48.794;9.182;2022-10-31T00:11:53;14.10;;;10.10;;
4313;SDS011;2170;48.794;9.182;2022-10-31T00:14:20;11.30;;;8.33;;
4313;SDS011;2170;48.794;9.182;2022-10-31T00:16:48;14.07;;;9.87;;
4313;SDS011;2170;48.794;9.182;2022-10-31T00:19:15;10.83;;;9.40;;
4313;SDS011;2170;48.794;9.182;2022-10-31T00:21:42;9.93;;;8.93;;
4313;SDS011;2170;48.794;9.182;2022-10-31T00:24:10;13.27;;;9.53;;
4313;SDS011;2170;48.794;9.182;2022-10-31T00:26:37;10.43;;;9.37;;
4313;SDS011;2170;48.794;9.182;2022-10-31T00:29:04;11.37;;;9.03;;
4313;SDS011;2170;48.794;9.182;2022-10-31T00:31:31;12.67;;;9.10;;
4313;SDS011;2170;48.794;9.182;2022-10-31T00:33:59;9.27;;;8.27;;
4313;SDS011;2170;48.794;9.182;2022-10-31T00:36:28;10.47;;;9.40;;
4313;SDS011;2170;48.794;9.182;2022-10-31T00:38:55;10.90;;;9.33;;
4313;SDS011;2170;48.794;9.182;2022-10-31T00:41:22;11.03;;;10.03;;
4313;SDS011;2170;48.794;9.182;2022-10-31T00:43:49;11.33;;;8.63;;
4313;SDS011;2170;48.794;9.182;2022-10-31T00:46:16;12.77;;;9.00;;
4313;SDS011;2170;48.794;9.182;2022-10-31T00:48:43;12.33;;;8.73;;
4313;SDS011;2170;48.794;9.182;2022-10-31T00:51:11;14.63;;;9.83;;
4313;SDS011;2170;48.794;9.182;2022-10-31T00:53:39;11.83;;;9.80;;
4313;SDS011;2170;48.794;9.182;2022-10-31T00:56:06;10.17;;;9.07;;
4313;SDS011;2170;48.794;9.182;2022-10-31T00:58:33;10.37;;;8.60;;
4313;SDS011;2170;48.794;9.182;2022-10-31T01:01:00;12.40;;;9.80;;
4313;SDS011;2170;48.794;9.182;2022-10-31T01:03:28;11.90;;;10.20;;
4313;SDS011;2170;48.794;9.182;2022-10-31T01:05:56;9.73;;;8.80;;
4313;SDS011;2170;48.794;9.182;2022-10-31T01:08:25;10.00;;;9.00;;
4313;SDS011;2170;48.794;9.182;2022-10-31T01:10:59;11.83;;;8.90;;
4313;SDS011;2170;48.794;9.182;2022-10-31T01:13:26;11.23;;;9.20;;
4313;SDS011;2170;48.794;9.182;2022-10-31T01:15:54;14.27;;;9.70;;
4313;SDS011;2170;48.794;9.182;2022-10-31T01:18:21;11.37;;;9.47;;
4313;SDS011;2170;48.794;9.182;2022-10-31T01:20:56;13.47;;;9.57;;
4313;SDS011;2170;48.794;9.182;2022-10-31T01:23:24;13.67;;;9.73;;
4313;SDS011;2170;48.794;9.182;2022-10-31T01:25:58;11.43;;;9.30;;
4313;SDS011;2170;48.794;9.182;2022-10-31T01:28:25;16.47;;;10.73;;
4313;SDS011;2170;48.794;9.182;2022-10-31T01:30:52;10.13;;;9.13;;
4313;SDS011;2170;48.794;9.182;2022-10-31T01:33:19;14.80;;;9.40;;
4313;SDS011;2170;48.794;9.182;2022-10-31T01:35:46;11.07;;;9.70;;
4313;SDS011;2170;48.794;9.182;2022-10-31T01:38:13;12.30;;;10.23;;
4313;SDS011;2170;48.794;9.182;2022-10-31T01:40:42;11.67;;;10.20;;
4313;SDS011;2170;48.794;9.182;2022-10-31T01:43:10;14.03;;;10.87;;
4313;SDS011;2170;48.794;9.182;2022-10-31T01:45:38;13.47;;;10.67;;
4313;SDS011;2170;48.794;9.182;2022-10-31T01:48:06;13.27;;;9.00;;
4313;SDS011;2170;48.794;9.182;2022-10-31T01:50:36;10.40;;;9.33;;
4313;SDS011;2170;48.794;9.182;2022-10-31T01:53:04;11.00;;;9.87;;
4313;SDS011;2170;48.794;9.182;2022-10-31T01:55:32;11.90;;;10.33;;
4313;SDS011;2170;48.794;9.182;2022-10-31T01:58:04;15.33;;;11.17;;
4313;SDS011;2170;48.794;9.182;2022-10-31T02:00:33;15.83;;;10.37;;
4313;SDS011;2170;48.794;9.182;2022-10-31T02:03:00;16.83;;;9.60;;
4313;SDS011;2170;48.794;9.182;2022-10-31T02:05:28;10.37;;;9.20;;
4313;SDS011;2170;48.794;9.182;2022-10-31T02:07:57;13.80;;;10.20;;
4313;SDS011;2170;48.794;9.182;2022-10-31T02:10:24;12.80;;;10.47;;
4313;SDS011;2170;48.794;9.182;2022-10-31T02:12:52;13.23;;;9.87;;
4313;SDS011;2170;48.794;9.182;2022-10-31T02:15:21;13.37;;;10.00;;
4313;SDS011;2170;48.794;9.182;2022-10-31T02:17:48;11.37;;;9.87;;
4313;SDS011;2170;48.794;9.182;2022-10-31T02:20:16;10.50;;;9.43;;
4313;SDS011;2170;48.794;9.182;2022-10-31T02:23:03;10.40;;;9.07;;
4313;SDS011;2170;48.794;9.182;2022-10-31T02:25:51;11.10;;;10.00;;
4313;SDS011;2170;48.794;9.182;2022-10-31T02:28:31;11.67;;;10.57;;
4313;SDS011;2170;48.794;9.182;2022-10-31T02:31:05;11.70;;;9.43;;
4313;SDS011;2170;48.794;9.182;2022-10-31T02:33:40;12.47;;;10.40;;
4313;SDS011;2170;48.794;9.182;2022-10-31T02:36:10;12.73;;;9.77;;
4313;SDS011;2170;48.794;9.182;2022-10-31T02:38:43;11.63;;;10.13;;
4313;SDS011;2170;48.794;9.182;2022-10-31T02:41:15;11.40;;;10.07;;
4313;SDS011;2170;48.794;9.182;2022-10-31T02:43:47;12.10;;;10.20;;
4313;SDS011;2170;48.794;9.182;2022-10-31T02:46:19;15.10;;;10.30;;
4313;SDS011;2170;48.794;9.182;2022-10-31T02:48:50;13.40;;;10.13;;
4313;SDS011;2170;48.794;9.182;2022-10-31T02:51:19;12.20;;;10.90;;
4313;SDS011;2170;48.794;9.182;2022-10-31T02:53:47;12.30;;;10.20;;
4313;SDS011;2170;48.794;9.182;2022-10-31T02:56:14;11.60;;;9.60;;
4313;SDS011;2170;48.794;9.182;2022-10-31T02:58:42;10.80;;;9.70;;
4313;SDS011;2170;48.794;9.182;2022-10-31T03:01:22;12.40;;;9.57;;
4313;SDS011;2170;48.794;9.182;2022-10-31T03:03:56;12.60;;;10.20;;
4313;SDS011;2170;48.794;9.182;2022-10-31T03:06:28;13.20;;;10.60;;
4313;SDS011;2170;48.794;9.182;2022-10-31T03:08:59;11.03;;;10.03;;
4313;SDS011;2170;48.794;9.182;2022-10-31T03:11:31;11.10;;;9.50;;
4313;SDS011;2170;48.794;9.182;2022-10-31T03:14:00;11.50;;;8.97;;
4313;SDS011;2170;48.794;9.182;2022-10-31T03:16:31;10.63;;;9.50;;
4313;SDS011;2170;48.794;9.182;2022-10-31T03:19:01;10.70;;;9.60;;
4313;SDS011;2170;48.794;9.182;2022-10-31T03:21:29;15.20;;;10.63;;
4313;SDS011;2170;48.794;9.182;2022-10-31T03:23:57;11.60;;;9.50;;
4313;SDS011;2170;48.794;9.182;2022-10-31T03:26:25;9.73;;;8.83;;
4313;SDS011;2170;48.794;9.182;2022-10-31T03:28:53;10.40;;;9.17;;
4313;SDS011;2170;48.794;9.182;2022-10-31T03:31:22;12.63;;;9.30;;
4313;SDS011;2170;48.794;9.182;2022-10-31T03:33:51;11.13;;;8.80;;
4313;SDS011;2170;48.794;9.182;2022-10-31T03:36:19;10.43;;;9.33;;
4313;SDS011;2170;48.794;9.182;2022-10-31T03:38:46;10.63;;;8.93;;
4313;SDS011;2170;48.794;9.182;2022-10-31T03:41:16;10.43;;;9.40;;
4313;SDS011;2170;48.794;9.182;2022-10-31T03:43:46;11.77;;;10.33;;
4313;SDS011;2170;48.794;9.182;2022-10-31T03:46:15;11.37;;;9.10;;
4313;SDS011;2170;48.794;9.182;2022-10-31T03:48:42;10.37;;;9.00;;
4313;SDS011;2170;48.794;9.182;2022-10-31T03:51:13;13.00;;;8.93;;
4313;SDS011;2170;48.794;9.182;2022-10-31T03:53:43;10.80;;;8.43;;
4313;SDS011;2170;48.794;9.182;2022-10-31T03:56:12;10.20;;;9.20;;
4313;SDS011;2170;48.794;9.182;2022-10-31T03:58:44;9.57;;;8.70;;
4313;SDS011;2170;48.794;9.182;2022-10-31T04:01:15;9.50;;;8.60;;
4313;SDS011;2170;48.794;9.182;2022-10-31T04:03:43;9.67;;;8.57;;
4313;SDS011;2170;48.794;9.182;2022-10-31T04:06:14;9.97;;;8.90;;
4313;SDS011;2170;48.794;9.182;2022-10-31T04:08:44;11.43;;;9.60;;
4313;SDS011;2170;48.794;9.182;2022-10-31T04:11:12;13.37;;;9.40;;
4313;SDS011;2170;48.794;9.182;2022-10-31T04:13:40;14.53;;;9.23;;
4313;SDS011;2170;48.794;9.182;2022-10-31T04:16:09;10.47;;;8.60;;
4313;SDS011;2170;48.794;9.182;2022-10-31T04:18:37;10.57;;;9.30;;
4313;SDS011;2170;48.794;9.182;2022-10-31T04:21:05;12.37;;;9.77;;
4313;SDS011;2170;48.794;9.182;2022-10-31T04:23:34;12.73;;;9.27;;
4313;SDS011;2170;48.794;9.182;2022-10-31T04:26:01;10.43;;;9.40;;
4313;SDS011;2170;48.794;9.182;2022-10-31T04:28:28;12.47;;;9.10;;
4313;SDS011;2170;48.794;9.182;2022-10-31T04:30:55;9.97;;;9.00;;
4313;SDS011;2170;48.794;9.182;2022-10-31T04:33:22;9.73;;;8.73;;
4313;SDS011;2170;48.794;9.182;2022-10-31T04:35:49;10.03;;;8.90;;
4313;SDS011;2170;48.794;9.182;2022-10-31T04:38:16;14.73;;;9.40;;
4313;SDS011;2170;48.794;9.182;2022-10-31T04:40:45;10.53;;;9.37;;
4313;SDS011;2170;48.794;9.182;2022-10-31T04:43:12;9.63;;;8.77;;
4313;SDS011;2170;48.794;9.182;2022-10-31T04:45:39;11.40;;;9.83;;
4313;SDS011;2170;48.794;9.182;2022-10-31T04:48:06;9.87;;;8.87;;
4313;SDS011;2170;48.794;9.182;2022-10-31T04:50:33;11.63;;;9.80;;
4313;SDS011;2170;48.794;9.182;2022-10-31T04:53:00;11.27;;;10.17;;
4313;SDS011;2170;48.794;9.182;2022-10-31T04:55:27;10.83;;;9.73;;
4313;SDS011;2170;48.794;9.182;2022-10-31T04:57:56;12.80;;;9.63;;
4313;SDS011;2170;48.794;9.182;2022-10-31T05:00:23;11.23;;;9.53;;
4313;SDS011;2170;48.794;9.182;2022-10-31T05:02:51;10.20;;;9.10;;
4313;SDS011;2170;48.794;9.182;2022-10-31T05:05:19;10.50;;;9.20;;
4313;SDS011;2170;48.794;9.182;2022-10-31T05:07:47;12.10;;;9.70;;
4313;SDS011;2170;48.794;9.182;2022-10-31T05:10:16;11.20;;;8.97;;
4313;SDS011;2170;48.794;9.182;2022-10-31T05:12:46;10.83;;;9.67;;
4313;SDS011;2170;48.794;9.182;2022-10-31T05:15:15;12.07;;;9.27;;
4313;SDS011;2170;48.794;9.182;2022-10-31T05:17:42;10.63;;;9.63;;
4313;SDS011;2170;48.794;9.182;2022-10-31T05:20:10;12.83;;;9.63;;
4313;SDS011;2170;48.794;9.182;2022-10-31T05:22:41;12.53;;;10.87;;
4313;SDS011;2170;48.794;9.182;2022-10-31T05:25:08;10.70;;;9.60;;
4313;SDS011;2170;48.794;9.182;2022-10-31T05:27:37;12.43;;;10.10;;
4313;SDS011;2170;48.794;9.182;2022-10-31T05:30:05;12.13;;;10.80;;
4313;SDS011;2170;48.794;9.182;2022-10-31T05:32:37;11.83;;;10.73;;
4313;SDS011;2170;48.794;9.182;2022-10-31T05:35:05;13.10;;;11.47;;
4313;SDS011;2170;48.794;9.182;2022-10-31T05:37:33;12.13;;;10.47;;
4313;SDS011;2170;48.794;9.182;2022-10-31T05:40:00;12.07;;;10.40;;
4313;SDS011;2170;48.794;9.182;2022-10-31T05:42:27;13.83;;;10.60;;
4313;SDS011;2170;48.794;9.182;2022-10-31T05:44:54;11.40;;;10.23;;
4313;SDS011;2170;48.794;9.182;2022-10-31T05:47:21;10.43;;;9.43;;
4313;SDS011;2170;48.794;9.182;2022-10-31T05:49:49;11.03;;;9.73;;
4313;SDS011;2170;48.794;9.182;2022-10-31T05:52:16;10.33;;;9.23;;
4313;SDS011;2170;48.794;9.182;2022-10-31T05:54:44;12.07;;;9.80;;
4313;SDS011;2170;48.794;9.182;2022-10-31T05:57:11;11.43;;;10.40;;
4313;SDS011;2170;48.794;9.182;2022-10-31T05:59:38;14.33;;;9.83;;
4313;SDS011;2170;48.794;9.182;2022-10-31T06:02:05;11.43;;;10.30;;
4313;SDS011;2170;48.794;9.182;2022-10-31T06:04:32;11.73;;;10.10;;
4313;SDS011;2170;48.794;9.182;2022-10-31T06:07:00;10.60;;;9.50;;
4313;SDS011;2170;48.794;9.182;2022-10-31T06:09:27;11.60;;;10.47;;
4313;SDS011;2170;48.794;9.182;2022-10-31T06:11:54;10.07;;;9.00;;
4313;SDS011;2170;48.794;9.182;2022-10-31T06:14:21;11.57;;;9.77;;
4313;SDS011;2170;48.794;9.182;2022-10-31T06:16:48;11.40;;;10.20;;
4313;SDS011;2170;48.794;9.182;2022-10-31T06:19:15;10.80;;;9.90;;
4313;SDS011;2170;48.794;9.182;2022-10-31T06:21:43;10.67;;;9.60;;
4313;SDS011;2170;48.794;9.182;2022-10-31T06:24:11;11.97;;;9.80;;
4313;SDS011;2170;48.794;9.182;2022-10-31T06:26:39;10.20;;;9.20;;
4313;SDS011;2170;48.794;9.182;2022-10-31T06:29:06;10.23;;;9.20;;
4313;SDS011;2170;48.794;9.182;2022-10-31T06:31:33;13.60;;;10.03;;
4313;SDS011;2170;48.794;9.182;2022-10-31T06:34:00;10.40;;;9.40;;
4313;SDS011;2170;48.794;9.182;2022-10-31T06:36:28;10.97;;;9.83;;
4313;SDS011;2170;48.794;9.182;2022-10-31T06:38:55;10.47;;;9.37;;
4313;SDS011;2170;48.794;9.182;2022-10-31T06:41:23;13.90;;;10.00;;
4313;SDS011;2170;48.794;9.182;2022-10-31T06:43:50;13.50;;;10.00;;
4313;SDS011;2170;48.794;9.182;2022-10-31T06:46:17;13.13;;;9.57;;
4313;SDS011;2170;48.794;9.182;2022-10-31T06:48:44;12.77;;;9.57;;
4313;SDS011;2170;48.794;9.182;2022-10-31T06:51:11;12.37;;;9.83;;
4313;SDS011;2170;48.794;9.182;2022-10-31T06:53:38;12.07;;;10.03;;
4313;SDS011;2170;48.794;9.182;2022-10-31T06:56:05;10.63;;;9.57;;
4313;SDS011;2170;48.794;9.182;2022-10-31T06:58:34;12.33;;;9.70;;
4313;SDS011;2170;48.794;9.182;2022-10-31T07:01:01;12.47;;;10.60;;
4313;SDS011;2170;48.794;9.182;2022-10-31T07:03:28;10.93;;;9.83;;
4313;SDS011;2170;48.794;9.182;2022-10-31T07:05:55;15.80;;;10.80;;
4313;SDS011;2170;48.794;9.182;2022-10-31T07:08:23;12.40;;;9.90;;
4313;SDS011;2170;48.794;9.182;2022-10-31T07:10:51;11.27;;;9.80;;
4313;SDS011;2170;48.794;9.182;2022-10-31T07:13:18;11.93;;;10.00;;
4313;SDS011;2170;48.794;9.182;2022-10-31T07:15:51;11.63;;;10.43;;
4313;SDS011;2170;48.794;9.182;2022-10-31T07:18:19;11.27;;;10.23;;
4313;SDS011;2170;48.794;9.182;2022-10-31T07:20:46;11.63;;;10.50;;
4313;SDS011;2170;48.794;9.182;2022-10-31T07:23:14;12.23;;;11.03;;
4313;SDS011;2170;48.794;9.182;2022-10-31T07:25:41;10.70;;;9.70;;
4313;SDS011;2170;48.794;9.182;2022-10-31T07:28:08;13.10;;;10.30;;
4313;SDS011;2170;48.794;9.182;2022-10-31T07:30:36;10.80;;;9.80;;
4313;SDS011;2170;48.794;9.182;2022-10-31T07:33:04;10.87;;;9.83;;
4313;SDS011;2170;48.794;9.182;2022-10-31T07:35:31;11.27;;;10.27;;
4313;SDS011;2170;48.794;9.182;2022-10-31T07:38:06;10.67;;;9.63;;
4313;SDS011;2170;48.794;9.182;2022-10-31T07:40:33;10.07;;;9.17;;
4313;SDS011;2170;48.794;9.182;2022-10-31T07:43:00;10.90;;;9.80;;
4313;SDS011;2170;48.794;9.182;2022-10-31T07:45:27;11.30;;;10.10;;
4313;SDS011;2170;48.794;9.182;2022-10-31T07:47:54;12.53;;;9.07;;
4313;SDS011;2170;48.794;9.182;2022-10-31T07:50:24;10.53;;;9.40;;
4313;SDS011;2170;48.794;9.182;2022-10-31T07:52:57;12.80;;;8.80;;
4313;SDS011;2170;48.794;9.182;2022-10-31T07:55:24;9.57;;;8.70;;
4313;SDS011;2170;48.794;9.182;2022-10-31T07:57:55;9.53;;;8.70;;
4313;SDS011;2170;48.794;9.182;2022-10-31T08:00:22;9.40;;;8.33;;
4313;SDS011;2170;48.794;9.182;2022-10-31T08:02:55;12.87;;;9.43;;
4313;SDS011;2170;48.794;9.182;2022-10-31T08:05:24;12.50;;;8.83;;
4313;SDS011;2170;48.794;9.182;2022-10-31T08:07:51;9.80;;;9.00;;
4313;SDS011;2170;48.794;9.182;2022-10-31T08:10:18;10.30;;;9.00;;
4313;SDS011;2170;48.794;9.182;2022-10-31T08:12:45;10.50;;;8.20;;
4313;SDS011;2170;48.794;9.182;2022-10-31T08:15:12;14.10;;;8.27;;
4313;SDS011;2170;48.794;9.182;2022-10-31T08:17:39;8.60;;;7.70;;
4313;SDS011;2170;48.794;9.182;2022-10-31T08:20:07;10.93;;;8.60;;
4313;SDS011;2170;48.794;9.182;2022-10-31T08:22:35;9.43;;;8.50;;
4313;SDS011;2170;48.794;9.182;2022-10-31T08:25:02;11.20;;;8.70;;
4313;SDS011;2170;48.794;9.182;2022-10-31T08:27:30;10.17;;;9.17;;
4313;SDS011;2170;48.794;9.182;2022-10-31T08:29:57;10.53;;;8.30;;
4313;SDS011;2170;48.794;9.182;2022-10-31T08:32:24;8.60;;;7.80;;
4313;SDS011;2170;48.794;9.182;2022-10-31T08:34:51;9.40;;;8.23;;
4313;SDS011;2170;48.794;9.182;2022-10-31T08:37:18;9.97;;;8.60;;
4313;SDS011;2170;48.794;9.182;2022-10-31T08:39:47;9.40;;;8.50;;
4313;SDS011;2170;48.794;9.182;2022-10-31T08:42:14;9.73;;;8.73;;
4313;SDS011;2170;48.794;9.182;2022-10-31T08:44:41;13.33;;;8.77;;
4313;SDS011;2170;48.794;9.182;2022-10-31T08:47:08;9.50;;;8.60;;
4313;SDS011;2170;48.794;9.182;2022-10-31T08:49:35;11.80;;;9.20;;
4313;SDS011;2170;48.794;9.182;2022-10-31T08:52:02;8.40;;;7.40;;
4313;SDS011;2170;48.794;9.182;2022-10-31T08:54:29;9.90;;;8.40;;
4313;SDS011;2170;48.794;9.182;2022-10-31T08:56:57;8.77;;;7.87;;
4313;SDS011;2170;48.794;9.182;2022-10-31T08:59:24;8.90;;;8.00;;
4313;SDS011;2170;48.794;9.182;2022-10-31T09:01:52;12.20;;;7.67;;
4313;SDS011;2170;48.794;9.182;2022-10-31T09:04:19;8.70;;;7.90;;
4313;SDS011;2170;48.794;9.182;2022-10-31T09:06:46;8.80;;;8.00;;
4313;SDS011;2170;48.794;9.182;2022-10-31T09:09:13;9.50;;;7.97;;
4313;SDS011;2170;48.794;9.182;2022-10-31T09:11:40;9.07;;;7.00;;
4313;SDS011;2170;48.794;9.182;2022-10-31T09:14:08;11.43;;;8.47;;
4313;SDS011;2170;48.794;9.182;2022-10-31T09:16:35;8.87;;;7.80;;
4313;SDS011;2170;48.794;9.182;2022-10-31T09:19:02;9.50;;;8.07;;
4313;SDS011;2170;48.794;9.182;2022-10-31T09:21:29;11.13;;;8.07;;
4313;SDS011;2170;48.794;9.182;2022-10-31T09:23:56;13.63;;;8.77;;
4313;SDS011;2170;48.794;9.182;2022-10-31T09:26:23;11.20;;;7.57;;
4313;SDS011;2170;48.794;9.182;2022-10-31T09:28:50;12.60;;;8.00;;
4313;SDS011;2170;48.794;9.182;2022-10-31T09:31:19;11.50;;;7.90;;
4313;SDS011;2170;48.794;9.182;2022-10-31T09:33:46;12.93;;;8.20;;
4313;SDS011;2170;48.794;9.182;2022-10-31T09:36:13;10.03;;;7.70;;
4313;SDS011;2170;48.794;9.182;2022-10-31T09:38:40;9.27;;;8.27;;
4313;SDS011;2170;48.794;9.182;2022-10-31T09:41:09;9.00;;;8.03;;
4313;SDS011;2170;48.794;9.182;2022-10-31T09:43:41;10.80;;;8.43;;
4313;SDS011;2170;48.794;9.182;2022-10-31T09:46:11;9.87;;;8.40;;
4313;SDS011;2170;48.794;9.182;2022-10-31T09:48:49;14.00;;;8.50;;
4313;SDS011;2170;48.794;9.182;2022-10-31T09:51:20;9.67;;;8.33;;
4313;SDS011;2170;48.794;9.182;2022-10-31T09:53:48;12.33;;;8.27;;
4313;SDS011;2170;48.794;9.182;2022-10-31T09:56:17;11.53;;;8.63;;
4313;SDS011;2170;48.794;9.182;2022-10-31T09:58:45;11.90;;;8.10;;
4313;SDS011;2170;48.794;9.182;2022-10-31T10:01:28;9.03;;;7.67;;
4313;SDS011;2170;48.794;9.182;2022-10-31T10:03:58;10.67;;;8.77;;
4313;SDS011;2170;48.794;9.182;2022-10-31T10:06:27;11.10;;;8.03;;
4313;SDS011;2170;48.794;9.182;2022-10-31T10:08:55;12.87;;;8.77;;
4313;SDS011;2170;48.794;9.182;2022-10-31T10:11:27;9.00;;;8.10;;
4313;SDS011;2170;48.794;9.182;2022-10-31T10:14:01;14.43;;;8.57;;
4313;SDS011;2170;48.794;9.182;2022-10-31T10:16:43;8.87;;;7.70;;
4313;SDS011;2170;48.794;9.182;2022-10-31T10:19:19;12.67;;;7.90;;
4313;SDS011;2170;48.794;9.182;2022-10-31T10:21:50;10.70;;;8.33;;
4313;SDS011;2170;48.794;9.182;2022-10-31T10:24:20;12.37;;;8.50;;
4313;SDS011;2170;48.794;9.182;2022-10-31T10:26:53;13.80;;;8.53;;
4313;SDS011;2170;48.794;9.182;2022-10-31T10:29:28;10.60;;;8.27;;
4313;SDS011;2170;48.794;9.182;2022-10-31T10:31:57;8.67;;;7.93;;
4313;SDS011;2170;48.794;9.182;2022-10-31T10:34:27;11.27;;;8.23;;
4313;SDS011;2170;48.794;9.182;2022-10-31T10:36:56;10.07;;;8.10;;
4313;SDS011;2170;48.794;9.182;2022-10-31T10:39:25;9.20;;;8.40;;
4313;SDS011;2170;48.794;9.182;2022-10-31T10:41:54;9.90;;;8.53;;
4313;SDS011;2170;48.794;9.182;2022-10-31T10:44:40;9.60;;;8.13;;
4313;SDS011;2170;48.794;9.182;2022-10-31T10:47:29;8.37;;;7.33;;
4313;SDS011;2170;48.794;9.182;2022-10-31T10:50:07;9.30;;;7.83;;
4313;SDS011;2170;48.794;9.182;2022-10-31T10:52:39;9.30;;;8.40;;
4313;SDS011;2170;48.794;9.182;2022-10-31T10:55:12;10.73;;;8.00;;
4313;SDS011;2170;48.794;9.182;2022-10-31T10:57:48;14.33;;;8.40;;
4313;SDS011;2170;48.794;9.182;2022-10-31T11:00:19;10.87;;;8.00;;
4313;SDS011;2170;48.794;9.182;2022-10-31T11:02:47;15.27;;;8.30;;
4313;SDS011;2170;48.794;9.182;2022-10-31T11:05:18;12.93;;;8.33;;
4313;SDS011;2170;48.794;9.182;2022-10-31T11:07:46;11.60;;;8.27;;
4313;SDS011;2170;48.794;9.182;2022-10-31T11:10:14;9.10;;;7.87;;
4313;SDS011;2170;48.794;9.182;2022-10-31T11:12:42;10.67;;;8.83;;
4313;SDS011;2170;48.794;9.182;2022-10-31T11:15:16;14.83;;;9.17;;
4313;SDS011;2170;48.794;9.182;2022-10-31T11:17:46;11.10;;;8.20;;
4313;SDS011;2170;48.794;9.182;2022-10-31T11:20:25;13.53;;;9.43;;
4313;SDS011;2170;48.794;9.182;2022-10-31T11:23:00;10.47;;;9.43;;
4313;SDS011;2170;48.794;9.182;2022-10-31T11:25:27;11.00;;;8.23;;
4313;SDS011;2170;48.794;9.182;2022-10-31T11:27:58;16.20;;;10.00;;
4313;SDS011;2170;48.794;9.182;2022-10-31T11:30:25;10.77;;;8.30;;
4313;SDS011;2170;48.794;9.182;2022-10-31T11:32:52;11.17;;;8.10;;
4313;SDS011;2170;48.794;9.182;2022-10-31T11:35:20;12.90;;;8.73;;
4313;SDS011;2170;48.794;9.182;2022-10-31T11:37:50;9.93;;;8.13;;
4313;SDS011;2170;48.794;9.182;2022-10-31T11:40:19;12.63;;;9.13;;
4313;SDS011;2170;48.794;9.182;2022-10-31T11:42:47;9.90;;;8.90;;
4313;SDS011;2170;48.794;9.182;2022-10-31T11:45:16;11.03;;;8.77;;
4313;SDS011;2170;48.794;9.182;2022-10-31T11:47:44;11.63;;;8.40;;
4313;SDS011;2170;48.794;9.182;2022-10-31T11:50:17;15.97;;;8.80;;
4313;SDS011;2170;48.794;9.182;2022-10-31T11:52:45;13.63;;;10.70;;
4313;SDS011;2170;48.794;9.182;2022-10-31T11:55:28;11.00;;;9.73;;
4313;SDS011;2170;48.794;9.182;2022-10-31T11:57:56;12.27;;;8.43;;
4313;SDS011;2170;48.794;9.182;2022-10-31T12:00:24;8.83;;;7.93;;
4313;SDS011;2170;48.794;9.182;2022-10-31T12:03:03;13.97;;;9.13;;
4313;SDS011;2170;48.794;9.182;2022-10-31T12:05:30;14.00;;;9.57;;
4313;SDS011;2170;48.794;9.182;2022-10-31T12:07:58;13.80;;;9.87;;
4313;SDS011;2170;48.794;9.182;2022-10-31T12:10:31;13.63;;;10.27;;
4313;SDS011;2170;48.794;9.182;2022-10-31T12:13:02;11.40;;;9.03;;
4313;SDS011;2170;48.794;9.182;2022-10-31T12:15:32;10.10;;;9.03;;
4313;SDS011;2170;48.794;9.182;2022-10-31T12:20:50;14.30;;;8.70;;
4313;SDS011;2170;48.794;9.182;2022-10-31T12:23:19;9.87;;;8.87;;
4313;SDS011;2170;48.794;9.182;2022-10-31T12:25:50;12.97;;;9.30;;
4313;SDS011;2170;48.794;9.182;2022-10-31T12:28:24;14.87;;;9.07;;
4313;SDS011;2170;48.794;9.182;2022-10-31T12:30:58;14.70;;;9.50;;
4313;SDS011;2170;48.794;9.182;2022-10-31T12:33:38;11.10;;;8.60;;
4313;SDS011;2170;48.794;9.182;2022-10-31T12:36:15;13.30;;;8.30;;
4313;SDS011;2170;48.794;9.182;2022-10-31T12:38:51;17.33;;;9.43;;
4313;SDS011;2170;48.794;9.182;2022-10-31T12:41:28;17.87;;;9.17;;
4313;SDS011;2170;48.794;9.182;2022-10-31T12:44:00;9.27;;;8.30;;
4313;SDS011;2170;48.794;9.182;2022-10-31T12:46:35;11.60;;;8.87;;
4313;SDS011;2170;48.794;9.182;2022-10-31T12:49:12;11.40;;;8.87;;
4313;SDS011;2170;48.794;9.182;2022-10-31T12:51:44;11.23;;;8.90;;
4313;SDS011;2170;48.794;9.182;2022-10-31T12:54:29;9.83;;;8.80;;
4313;SDS011;2170;48.794;9.182;2022-10-31T12:57:02;12.10;;;8.90;;
4313;SDS011;2170;48.794;9.182;2022-10-31T12:59:33;13.60;;;9.47;;
4313;SDS011;2170;48.794;9.182;2022-10-31T13:02:03;11.50;;;8.53;;
4313;SDS011;2170;48.794;9.182;2022-10-31T13:04:35;11.37;;;9.30;;
4313;SDS011;2170;48.794;9.182;2022-10-31T13:07:04;12.63;;;9.77;;
4313;SDS011;2170;48.794;9.182;2022-10-31T13:09:34;13.73;;;8.90;;
4313;SDS011;2170;48.794;9.182;2022-10-31T13:12:04;11.10;;;8.90;;
4313;SDS011;2170;48.794;9.182;2022-10-31T13:14:35;9.47;;;8.50;;
4313;SDS011;2170;48.794;9.182;2022-10-31T13:17:11;11.53;;;8.73;;
4313;SDS011;2170;48.794;9.182;2022-10-31T13:19:41;12.10;;;9.23;;
4313;SDS011;2170;48.794;9.182;2022-10-31T13:22:10;12.63;;;9.10;;
4313;SDS011;2170;48.794;9.182;2022-10-31T13:24:40;14.80;;;9.23;;
4313;SDS011;2170;48.794;9.182;2022-10-31T13:27:13;10.60;;;9.60;;
4313;SDS011;2170;48.794;9.182;2022-10-31T13:29:42;15.97;;;9.63;;
4313;SDS011;2170;48.794;9.182;2022-10-31T13:32:10;10.47;;;8.77;;
4313;SDS011;2170;48.794;9.182;2022-10-31T13:34:38;14.17;;;9.50;;
4313;SDS011;2170;48.794;9.182;2022-10-31T13:37:09;17.43;;;10.17;;
4313;SDS011;2170;48.794;9.182;2022-10-31T13:39:45;18.00;;;9.97;;
4313;SDS011;2170;48.794;9.182;2022-10-31T13:42:17;14.67;;;10.23;;
4313;SDS011;2170;48.794;9.182;2022-10-31T13:44:45;18.43;;;9.40;;
4313;SDS011;2170;48.794;9.182;2022-10-31T13:47:24;10.90;;;8.87;;
4313;SDS011;2170;48.794;9.182;2022-10-31T13:49:51;11.93;;;9.73;;
4313;SDS011;2170;48.794;9.182;2022-10-31T13:52:22;13.93;;;9.97;;
4313;SDS011;2170;48.794;9.182;2022-10-31T13:54:50;12.53;;;9.53;;
4313;SDS011;2170;48.794;9.182;2022-10-31T13:57:24;13.90;;;8.40;;
4313;SDS011;2170;48.794;9.182;2022-10-31T13:59:54;12.23;;;9.60;;
4313;SDS011;2170;48.794;9.182;2022-10-31T14:02:25;16.23;;;9.10;;
4313;SDS011;2170;48.794;9.182;2022-10-31T14:04:54;11.63;;;9.10;;
4313;SDS011;2170;48.794;9.182;2022-10-31T14:07:22;12.80;;;9.70;;
4313;SDS011;2170;48.794;9.182;2022-10-31T14:09:52;15.27;;;9.67;;
4313;SDS011;2170;48.794;9.182;2022-10-31T14:12:24;17.87;;;9.27;;
4313;SDS011;2170;48.794;9.182;2022-10-31T14:14:52;13.20;;;9.83;;
4313;SDS011;2170;48.794;9.182;2022-10-31T14:17:23;11.63;;;8.80;;
4313;SDS011;2170;48.794;9.182;2022-10-31T14:20:21;14.90;;;10.00;;
4313;SDS011;2170;48.794;9.182;2022-10-31T14:22:48;11.93;;;8.77;;
4313;SDS011;2170;48.794;9.182;2022-10-31T14:25:25;12.07;;;9.60;;
4313;SDS011;2170;48.794;9.182;2022-10-31T14:27:54;9.80;;;8.80;;
4313;SDS011;2170;48.794;9.182;2022-10-31T14:30:22;12.20;;;9.17;;
4313;SDS011;2170;48.794;9.182;2022-10-31T14:32:51;12.03;;;9.97;;
4313;SDS011;2170;48.794;9.182;2022-10-31T14:35:19;14.57;;;10.07;;
4313;SDS011;2170;48.794;9.182;2022-10-31T14:37:55;11.93;;;9.77;;
4313;SDS011;2170;48.794;9.182;2022-10-31T14:40:27;14.50;;;8.90;;
4313;SDS011;2170;48.794;9.182;2022-10-31T14:45:42;10.47;;;8.03;;
4313;SDS011;2170;48.794;9.182;2022-10-31T14:48:16;10.73;;;9.07;;
4313;SDS011;2170;48.794;9.182;2022-10-31T14:50:49;12.80;;;9.13;;
4313;SDS011;2170;48.794;9.182;2022-10-31T14:53:18;11.10;;;8.50;;
4313;SDS011;2170;48.794;9.182;2022-10-31T14:55:47;11.53;;;8.37;;
4313;SDS011;2170;48.794;9.182;2022-10-31T14:58:16;15.00;;;7.93;;
4313;SDS011;2170;48.794;9.182;2022-10-31T15:00:50;9.90;;;8.40;;
4313;SDS011;2170;48.794;9.182;2022-10-31T15:03:22;9.90;;;8.87;;
4313;SDS011;2170;48.794;9.182;2022-10-31T15:05:50;11.43;;;8.17;;
4313;SDS011;2170;48.794;9.182;2022-10-31T15:08:29;10.47;;;8.90;;
4313;SDS011;2170;48.794;9.182;2022-10-31T15:10:57;10.10;;;8.10;;
4313;SDS011;2170;48.794;9.182;2022-10-31T15:13:24;13.53;;;9.10;;
4313;SDS011;2170;48.794;9.182;2022-10-31T15:15:54;19.47;;;9.13;;
4313;SDS011;2170;48.794;9.182;2022-10-31T15:18:22;12.33;;;9.30;;
4313;SDS011;2170;48.794;9.182;2022-10-31T15:20:50;11.23;;;9.43;;